Terminal Aerodrome Forecast
Issued by NWS

Current Version | Previous Version | Text Only | Print | Product List | Glossary On
Versions: 1 2 3 4 5 6 7 8 9 10 11 12 13 14 15 16 17 18 19 20 21 22 23 24 25 26 27 28 29 30 31 32 33 34 35 36
975
FTUS45 KGJT 280531
TAFVEL
TAF
KVEL 280531Z 2806/2906 21003KT P6SM SKC
     FM281900 20006KT P6SM FEW140
     FM282200 26009G17KT P6SM SCT130
     FM290100 29008KT P6SM FEW250=

USA.gov is the U.S. government's official web portal to all federal, state and local government web resources and services.